createdAt,value
2018-03-11T00:00:01.735Z,990.55
2018-03-11T00:01:11.830Z,990.56
2018-03-11T00:02:21.921Z,990.55
2018-03-11T00:03:31.773Z,990.61
2018-03-11T00:04:41.862Z,990.58
2018-03-11T00:05:51.700Z,990.6
2018-03-11T00:07:01.760Z,990.62
2018-03-11T00:08:11.829Z,990.63
2018-03-11T00:09:21.885Z,990.63
2018-03-11T00:10:31.422Z,990.7
2018-03-11T00:11:41.520Z,990.69
2018-03-11T00:12:51.644Z,990.76
2018-03-11T00:14:01.456Z,990.78
2018-03-11T00:15:11.263Z,990.78
2018-03-11T00:16:21.058Z,990.79
2018-03-11T00:17:31.151Z,990.77
2018-03-11T00:18:41.271Z,990.74
2018-03-11T00:19:51.103Z,990.78
2018-03-11T00:21:00.381Z,990.78
2018-03-11T00:22:10.465Z,990.81
2018-03-11T00:23:20.316Z,990.81
2018-03-11T00:24:30.436Z,990.84
2018-03-11T00:25:40.259Z,990.79
2018-03-11T00:26:50.074Z,990.81
2018-03-11T00:27:59.875Z,990.81
2018-03-11T00:29:09.957Z,990.79
2018-03-11T00:30:20.145Z,990.73
2018-03-11T00:31:30.213Z,990.75
2018-03-11T00:32:40.036Z,990.73
2018-03-11T00:33:50.116Z,990.69
2018-03-11T00:34:59.919Z,990.65
2018-03-11T00:36:09.785Z,990.62
2018-03-11T00:37:19.838Z,990.59
2018-03-11T00:38:29.670Z,990.61
2018-03-11T00:39:39.495Z,990.58
2018-03-11T00:40:49.039Z,990.51
2018-03-11T00:41:59.116Z,990.52
2018-03-11T00:43:08.968Z,990.51
2018-03-11T00:44:18.867Z,990.51
2018-03-11T00:45:28.419Z,990.49
2018-03-11T00:46:38.215Z,990.48
2018-03-11T00:47:48.085Z,990.43
2018-03-11T00:48:58.156Z,990.45
2018-03-11T00:50:08.224Z,990.45
2018-03-11T00:51:18.033Z,990.41
2018-03-11T00:52:28.105Z,990.44
2018-03-11T00:53:37.960Z,990.42
2018-03-11T00:54:47.802Z,990.46
2018-03-11T00:55:57.490Z,990.44
2018-03-11T00:57:07.285Z,990.41
2018-03-11T00:58:17.355Z,990.37
2018-03-11T00:59:27.429Z,990.36
2018-03-11T01:00:37.498Z,990.35
2018-03-11T01:01:47.296Z,990.34
2018-03-11T01:02:57.354Z,990.34
2018-03-11T01:04:07.436Z,990.31
2018-03-11T01:05:16.967Z,990.28
2018-03-11T01:06:26.768Z,990.3
2018-03-11T01:07:36.841Z,990.25
2018-03-11T01:08:46.699Z,990.28
2018-03-11T01:09:56.781Z,990.23
2018-03-11T01:11:06.614Z,990.23
2018-03-11T01:12:16.928Z,990.2
2018-03-11T01:13:26.727Z,990.19
2018-03-11T01:14:36.260Z,990.23
2018-03-11T01:15:46.086Z,990.18
2018-03-11T01:16:56.190Z,990.24
2018-03-11T01:18:05.987Z,990.19
2018-03-11T01:19:16.038Z,990.17
2018-03-11T01:20:26.116Z,990.19
2018-03-11T01:21:36.227Z,990.16
2018-03-11T01:22:46.333Z,990.15
2018-03-11T01:23:56.387Z,990.07
2018-03-11T01:25:06.191Z,990.05
2018-03-11T01:26:16.263Z,990.02
2018-03-11T01:27:26.093Z,990
2018-03-11T01:28:35.977Z,989.97
2018-03-11T01:29:45.782Z,990.02
2018-03-11T01:30:55.581Z,990.02
2018-03-11T01:32:05.655Z,989.97
2018-03-11T01:33:15.455Z,990.01
2018-03-11T01:34:25.000Z,990
2018-03-11T01:35:34.791Z,990
2018-03-11T01:36:44.604Z,989.93
2018-03-11T01:37:54.690Z,989.93
2018-03-11T01:39:04.759Z,989.93
2018-03-11T01:40:14.834Z,989.91
2018-03-11T01:41:24.901Z,989.87
2018-03-11T01:42:34.708Z,989.89
2018-03-11T01:43:44.512Z,989.94
2018-03-11T01:44:54.305Z,989.94
2018-03-11T01:46:04.454Z,989.96
2018-03-11T01:47:13.725Z,989.93
2018-03-11T01:48:23.531Z,989.94
2018-03-11T01:49:33.075Z,989.95
2018-03-11T01:50:43.151Z,989.96
2018-03-11T01:51:53.269Z,989.96
2018-03-11T01:53:03.060Z,989.93
2018-03-11T01:54:12.853Z,989.9
2018-03-11T01:55:22.943Z,989.9
2018-03-11T01:56:32.996Z,989.87
2018-03-11T01:57:43.120Z,989.86
2018-03-11T01:58:53.196Z,989.82
2018-03-11T02:00:03.276Z,989.81
2018-03-11T02:01:12.836Z,989.83
2018-03-11T02:02:22.102Z,989.79
2018-03-11T02:03:32.160Z,989.82
2018-03-11T02:04:41.948Z,989.81
2018-03-11T02:05:52.025Z,989.84
2018-03-11T02:07:02.089Z,989.82
2018-03-11T02:08:11.628Z,989.81
2018-03-11T02:09:21.424Z,989.8
2018-03-11T02:10:31.486Z,989.83
2018-03-11T02:11:41.282Z,989.79
2018-03-11T02:12:51.346Z,989.81
2018-03-11T02:14:01.145Z,989.74
2018-03-11T02:15:10.668Z,989.76
2018-03-11T02:16:20.725Z,989.74
2018-03-11T02:17:30.775Z,989.72
2018-03-11T02:18:40.597Z,989.68
2018-03-11T02:19:50.664Z,989.68
2018-03-11T02:21:00.718Z,989.64
2018-03-11T02:22:10.516Z,989.65
2018-03-11T02:23:20.569Z,989.67
2018-03-11T02:24:30.626Z,989.63
2018-03-11T02:25:40.442Z,989.63
2018-03-11T02:26:50.510Z,989.65
2018-03-11T02:28:00.570Z,989.63
2018-03-11T02:29:10.639Z,989.62
2018-03-11T02:30:20.437Z,989.57
2018-03-11T02:31:30.502Z,989.57
2018-03-11T02:32:40.583Z,989.59
2018-03-11T02:33:50.403Z,989.57
2018-03-11T02:35:00.198Z,989.55
2018-03-11T02:36:09.760Z,989.53
2018-03-11T02:37:19.822Z,989.53
2018-03-11T02:38:29.970Z,989.49
2018-03-11T02:39:40.046Z,989.47
2018-03-11T02:40:49.846Z,989.51
2018-03-11T02:41:59.637Z,989.51
2018-03-11T02:43:09.475Z,989.52
2018-03-11T02:44:19.326Z,989.45
2018-03-11T02:45:29.128Z,989.46
2018-03-11T02:46:38.932Z,989.47
2018-03-11T02:47:48.732Z,989.42
2018-03-11T02:48:58.534Z,989.43
2018-03-11T02:50:08.351Z,989.45
2018-03-11T02:51:18.423Z,989.41
2018-03-11T02:52:28.250Z,989.44
2018-03-11T02:53:38.324Z,989.37
2018-03-11T02:54:48.123Z,989.36
2018-03-11T02:55:57.984Z,989.34
2018-03-11T02:57:08.085Z,989.36
2018-03-11T02:58:18.147Z,989.38
2018-03-11T02:59:27.949Z,989.42
2018-03-11T03:00:37.734Z,989.36
2018-03-11T03:01:47.325Z,989.37
2018-03-11T03:02:57.383Z,989.34
2018-03-11T03:04:07.462Z,989.37
2018-03-11T03:05:17.521Z,989.38
2018-03-11T03:06:27.055Z,989.42
2018-03-11T03:07:37.174Z,989.4
2018-03-11T03:39:32.589Z,989.65
2018-03-11T03:40:42.373Z,989.66
2018-03-11T03:41:52.432Z,989.71
2018-03-11T03:43:01.954Z,989.69
2018-03-11T03:44:12.028Z,989.7
2018-03-11T03:45:21.568Z,989.69
2018-03-11T03:46:31.375Z,989.67
2018-03-11T03:47:41.442Z,989.69
2018-03-11T03:48:51.239Z,989.64
2018-03-11T03:50:01.304Z,989.7
2018-03-11T03:51:11.146Z,989.68
2018-03-11T03:52:20.682Z,989.66
2018-03-11T03:53:30.482Z,989.7
2018-03-11T03:54:40.012Z,989.69
2018-03-11T03:55:49.532Z,989.67
2018-03-11T03:56:59.325Z,989.63
2018-03-11T03:58:09.117Z,989.61
2018-03-11T03:59:18.665Z,989.62
2018-03-11T04:00:28.466Z,989.61
2018-03-11T04:01:38.276Z,989.57
2018-03-11T04:02:47.534Z,989.57
2018-03-11T04:03:57.597Z,989.6
2018-03-11T04:05:07.674Z,989.58
2018-03-11T04:06:17.478Z,989.58
2018-03-11T04:07:27.551Z,989.61
2018-03-11T04:08:37.345Z,989.57
2018-03-11T04:09:47.418Z,989.56
2018-03-11T04:10:57.224Z,989.53
2018-03-11T04:12:06.753Z,989.57
2018-03-11T04:13:16.815Z,989.54
2018-03-11T04:14:26.932Z,989.53
2018-03-11T04:15:36.754Z,989.53
2018-03-11T04:16:46.836Z,989.51
2018-03-11T04:17:56.638Z,989.5
2018-03-11T04:19:06.716Z,989.51
2018-03-11T04:20:16.250Z,989.51
2018-03-11T04:21:26.043Z,989.49
2018-03-11T04:22:35.314Z,989.5
2018-03-11T04:23:44.861Z,989.49
2018-03-11T04:24:54.647Z,989.5
2018-03-11T04:26:04.762Z,989.49
2018-03-11T04:27:14.571Z,989.49
2018-03-11T04:28:24.391Z,989.51
2018-03-11T04:29:34.184Z,989.51
2018-03-11T04:30:43.731Z,989.51
2018-03-11T04:31:53.526Z,989.51
2018-03-11T04:33:03.332Z,989.45
2018-03-11T04:34:12.867Z,989.45
2018-03-11T04:35:22.925Z,989.47
2018-03-11T04:36:32.711Z,989.45
2018-03-11T04:37:42.557Z,989.39
2018-03-11T04:38:52.369Z,989.46
2018-03-11T04:40:01.911Z,989.46
2018-03-11T04:41:11.993Z,989.52
2018-03-11T04:42:22.055Z,989.54
2018-03-11T04:43:31.848Z,989.55
2018-03-11T04:44:41.632Z,989.61
2018-03-11T04:45:51.700Z,989.59
2018-03-11T04:47:01.769Z,989.61
2018-03-11T04:48:11.826Z,989.64
2018-03-11T04:49:21.934Z,989.63
2018-03-11T04:50:31.480Z,989.65
2018-03-11T04:51:41.551Z,989.66
2018-03-11T04:52:51.083Z,989.62
2018-03-11T04:54:01.145Z,989.59
2018-03-11T04:55:11.222Z,989.62
2018-03-11T04:56:21.286Z,989.58
2018-03-11T04:57:31.351Z,989.57
2018-03-11T04:58:41.140Z,989.58
2018-03-11T04:59:50.922Z,989.55
2018-03-11T05:01:01.037Z,989.61
2018-03-11T05:02:11.099Z,989.64
2018-03-11T05:03:20.883Z,989.68
2018-03-11T05:04:30.684Z,989.68
2018-03-11T05:05:40.751Z,989.67
2018-03-11T05:06:50.811Z,989.65
2018-03-11T05:08:00.872Z,989.6
2018-03-11T05:09:10.935Z,989.56
2018-03-11T05:10:21.088Z,989.58
2018-03-11T05:11:31.139Z,989.57
2018-03-11T05:12:40.674Z,989.62
2018-03-11T05:13:50.464Z,989.53
2018-03-11T05:15:00.523Z,989.5
2018-03-11T05:16:10.576Z,989.45
2018-03-11T05:17:20.642Z,989.42
2018-03-11T05:18:30.473Z,989.42
2018-03-11T05:19:40.027Z,989.4
2018-03-11T05:20:49.884Z,989.41
2018-03-11T05:21:59.955Z,989.42
2018-03-11T05:23:10.022Z,989.41
2018-03-11T05:24:20.088Z,989.37
2018-03-11T05:25:30.209Z,989.39
2018-03-11T05:26:40.011Z,989.37
2018-03-11T05:27:50.088Z,989.37
2018-03-11T05:28:59.940Z,989.35
2018-03-11T05:30:09.746Z,989.34
2018-03-11T05:31:19.831Z,989.3
2018-03-11T05:32:29.880Z,989.28
2018-03-11T05:33:39.415Z,989.26
2018-03-11T05:34:49.477Z,989.24
2018-03-11T05:35:59.536Z,989.23
2018-03-11T05:37:09.326Z,989.26
2018-03-11T05:38:19.425Z,989.25
2018-03-11T05:39:29.492Z,989.26
2018-03-11T05:40:39.338Z,989.26
2018-03-11T05:41:49.401Z,989.22
2018-03-11T05:42:59.458Z,989.25
2018-03-11T05:44:08.983Z,989.25
2018-03-11T05:45:19.039Z,989.23
2018-03-11T05:46:29.108Z,989.25
2018-03-11T05:47:39.154Z,989.25
2018-03-11T05:48:48.945Z,989.26
2018-03-11T05:49:58.782Z,989.21
2018-03-11T05:51:08.868Z,989.23
2018-03-11T05:52:18.915Z,989.21
2018-03-11T05:53:29.025Z,989.15
2018-03-11T05:54:38.837Z,989.17
2018-03-11T05:55:48.944Z,989.2
2018-03-11T05:56:58.751Z,989.19
2018-03-11T05:58:08.539Z,989.22
2018-03-11T05:59:18.643Z,989.19
2018-03-11T06:00:28.882Z,989.26
2018-03-11T06:01:38.675Z,989.28
2018-03-11T06:02:48.471Z,989.32
2018-03-11T06:03:58.539Z,989.35
2018-03-11T06:05:08.344Z,989.32
2018-03-11T06:06:18.135Z,989.29
2018-03-11T06:07:27.983Z,989.28
2018-03-11T06:08:38.037Z,989.23
2018-03-11T06:09:47.830Z,989.22
2018-03-11T06:10:57.927Z,989.18
2018-03-11T06:12:07.474Z,989.16
2018-03-11T06:13:17.302Z,989.2
2018-03-11T06:14:27.341Z,989.18
2018-03-11T06:15:37.142Z,989.19
2018-03-11T06:16:47.203Z,989.24
2018-03-11T06:17:57.333Z,989.22
2018-03-11T06:19:07.195Z,989.22
2018-03-11T06:20:16.730Z,989.21
2018-03-11T06:21:26.529Z,989.19
2018-03-11T06:22:36.600Z,989.17
2018-03-11T06:23:46.401Z,989.16
2018-03-11T06:24:55.959Z,989.17
2018-03-11T06:26:06.022Z,989.15
2018-03-11T06:27:16.126Z,989.15
2018-03-11T06:28:25.654Z,989.17
2018-03-11T06:29:35.724Z,989.14
2018-03-11T06:30:45.521Z,989.14
2018-03-11T06:31:55.329Z,989.08
2018-03-11T06:33:05.126Z,989.05
2018-03-11T06:34:15.190Z,989
2018-03-11T06:35:25.250Z,989.04
2018-03-11T06:36:35.298Z,989.01
2018-03-11T06:37:44.823Z,988.97
2018-03-11T06:38:54.954Z,988.96
2018-03-11T06:40:05.067Z,988.88
2018-03-11T06:41:14.874Z,988.94
2018-03-11T06:42:24.409Z,988.95
2018-03-11T06:43:34.465Z,988.95
2018-03-11T06:44:44.008Z,988.94
2018-03-11T06:45:53.821Z,988.96
2018-03-11T06:47:03.615Z,988.92
2018-03-11T06:48:13.684Z,988.97
2018-03-11T06:49:23.740Z,988.95
2018-03-11T06:50:33.544Z,988.9
2018-03-11T06:51:43.350Z,988.89
2018-03-11T06:52:53.430Z,988.85
2018-03-11T06:54:03.232Z,988.82
2018-03-11T06:55:13.310Z,988.81
2018-03-11T06:56:22.849Z,988.84
2018-03-11T06:57:32.131Z,988.77
2018-03-11T06:58:41.938Z,988.74
2018-03-11T06:59:51.471Z,988.81
2018-03-11T07:01:01.524Z,988.83
2018-03-11T07:02:11.364Z,988.86
2018-03-11T07:03:21.191Z,988.85
2018-03-11T07:04:30.990Z,988.78
2018-03-11T07:05:40.801Z,988.72
2018-03-11T07:06:50.066Z,988.7
2018-03-11T07:08:00.262Z,988.69
2018-03-11T07:09:10.330Z,988.67
2018-03-11T07:10:20.428Z,988.67
2018-03-11T07:11:30.522Z,988.63
2018-03-11T07:12:40.597Z,988.64
2018-03-11T07:13:50.714Z,988.67
2018-03-11T07:15:00.785Z,988.65
2018-03-11T07:16:10.073Z,988.64
2018-03-11T07:17:20.260Z,988.64
2018-03-11T07:18:30.325Z,988.66
2018-03-11T07:19:39.856Z,988.71
2018-03-11T07:20:49.644Z,988.66
2018-03-11T07:21:59.709Z,988.62
2018-03-11T07:23:09.552Z,988.56
2018-03-11T07:24:19.099Z,988.59
2018-03-11T07:25:29.263Z,988.63
2018-03-11T07:26:39.061Z,988.59
2018-03-11T07:27:49.117Z,988.47
2018-03-11T07:28:58.933Z,988.45
2018-03-11T07:30:08.486Z,988.4
2018-03-11T07:31:18.623Z,988.39
2018-03-11T07:32:28.174Z,988.31
2018-03-11T07:33:37.976Z,988.34
2018-03-11T07:34:48.033Z,988.35
2018-03-11T07:35:58.092Z,988.38
2018-03-11T07:37:07.633Z,988.44
2018-03-11T07:38:17.163Z,988.46
2018-03-11T07:39:26.997Z,988.53
2018-03-11T07:40:36.543Z,988.55
2018-03-11T07:41:46.601Z,988.55
2018-03-11T07:42:56.686Z,988.58
2018-03-11T07:44:06.781Z,988.56
2018-03-11T07:45:16.589Z,988.63
2018-03-11T07:46:26.663Z,988.64
2018-03-11T07:47:36.723Z,988.69
2018-03-11T07:48:46.835Z,988.62
2018-03-11T07:49:56.913Z,988.64
2018-03-11T07:51:07.021Z,988.62
2018-03-11T07:52:16.812Z,988.73
2018-03-11T07:53:26.884Z,988.76
2018-03-11T07:54:36.982Z,988.77
2018-03-11T07:55:47.142Z,988.71
2018-03-11T07:56:57.223Z,988.72
2018-03-11T07:58:06.775Z,988.67
2018-03-11T07:59:16.557Z,988.72
2018-03-11T08:00:26.374Z,988.76
2018-03-11T08:01:36.430Z,988.8
2018-03-11T08:02:45.962Z,988.83
2018-03-11T08:03:56.041Z,988.78
2018-03-11T08:05:05.843Z,988.78
2018-03-11T08:06:15.634Z,988.78
2018-03-11T08:07:25.707Z,988.71
2018-03-11T08:08:35.780Z,988.67
2018-03-11T08:09:45.859Z,988.64
2018-03-11T08:10:55.668Z,988.65
2018-03-11T08:12:05.751Z,988.64
2018-03-11T08:13:15.819Z,988.62
2018-03-11T08:14:25.918Z,988.62
2018-03-11T08:15:35.930Z,988.6
2018-03-11T08:16:46.031Z,988.61
2018-03-11T08:17:55.579Z,988.67
2018-03-11T08:19:05.130Z,988.58
2018-03-11T08:20:14.990Z,988.56
2018-03-11T08:21:24.938Z,988.56
2018-03-11T08:22:34.479Z,988.54
2018-03-11T08:23:44.040Z,988.59
2018-03-11T08:24:54.121Z,988.57
2018-03-11T08:26:04.217Z,988.57
2018-03-11T08:27:14.291Z,988.59
2018-03-11T08:28:24.385Z,988.63
2018-03-11T08:29:34.478Z,988.56
2018-03-11T08:30:44.267Z,988.64
2018-03-11T08:31:54.121Z,988.61
2018-03-11T08:33:03.938Z,988.61
2018-03-11T08:34:14.035Z,988.63
2018-03-11T08:35:24.108Z,988.61
2018-03-11T08:36:33.929Z,988.58
2018-03-11T08:37:43.744Z,988.6
2018-03-11T08:38:53.827Z,988.56
2018-03-11T08:40:03.631Z,988.57
2018-03-11T08:41:13.708Z,988.58
2018-03-11T08:42:23.508Z,988.61
2018-03-11T08:43:33.390Z,988.63
2018-03-11T08:44:43.468Z,988.59
2018-03-11T08:45:53.566Z,988.58
2018-03-11T08:47:03.661Z,988.48
2018-03-11T08:48:13.467Z,988.47
2018-03-11T08:49:23.632Z,988.41
2018-03-11T08:50:33.196Z,988.29
2018-03-11T08:51:43.323Z,988.29
2018-03-11T08:52:53.435Z,988.27
2018-03-11T08:54:03.368Z,988.28
2018-03-11T08:55:13.446Z,988.34
2018-03-11T08:56:23.257Z,988.31
2018-03-11T08:57:33.074Z,988.28
2018-03-11T08:58:43.162Z,988.32
2018-03-11T08:59:53.235Z,988.3
2018-03-11T09:01:02.582Z,988.19
2018-03-11T09:02:12.400Z,988.19
2018-03-11T09:03:22.209Z,988.16
2018-03-11T09:04:32.325Z,988.13
2018-03-11T09:05:42.130Z,988.11
2018-03-11T09:06:52.300Z,988.1
2018-03-11T09:08:02.143Z,988.09
2018-03-11T09:09:12.232Z,988.01
2018-03-11T09:10:22.361Z,987.98
2018-03-11T09:11:32.771Z,987.97
2018-03-11T09:12:42.895Z,987.99
2018-03-11T09:13:52.713Z,987.95
2018-03-11T09:15:02.816Z,987.95
2018-03-11T09:16:12.640Z,987.97
2018-03-11T09:17:22.725Z,987.96
2018-03-11T09:18:32.291Z,987.93
2018-03-11T09:19:42.356Z,988.03
2018-03-11T09:20:52.150Z,988.12
2018-03-11T09:22:01.970Z,987.99
2018-03-11T09:23:12.062Z,987.91
2018-03-11T09:24:21.867Z,987.87
2018-03-11T09:25:31.399Z,987.93
2018-03-11T09:26:41.493Z,987.95
2018-03-11T09:27:51.657Z,988.04
2018-03-11T09:29:01.448Z,988.02
2018-03-11T09:30:10.997Z,988.05
2018-03-11T09:31:21.085Z,987.99
2018-03-11T09:32:30.904Z,987.88
2018-03-11T09:33:40.995Z,987.82
2018-03-11T09:34:50.876Z,987.84
2018-03-11T09:36:00.904Z,987.82
2018-03-11T09:37:11.023Z,987.95
2018-03-11T09:38:20.890Z,988
2018-03-11T09:39:30.187Z,988.09
2018-03-11T09:40:40.274Z,988.04
2018-03-11T09:41:50.171Z,988.04
2018-03-11T09:42:59.988Z,987.98
2018-03-11T09:44:10.103Z,987.91
2018-03-11T09:45:20.173Z,987.95
2018-03-11T09:46:30.272Z,987.89
2018-03-11T09:47:40.451Z,987.87
2018-03-11T09:48:50.546Z,987.82
2018-03-11T09:50:00.639Z,987.87
2018-03-11T09:51:10.745Z,987.86
2018-03-11T09:52:20.581Z,987.86
2018-03-11T09:53:30.514Z,987.84
2018-03-11T09:54:40.323Z,987.81
2018-03-11T09:55:50.408Z,987.7
2018-03-11T09:57:00.737Z,987.63
2018-03-11T09:58:10.817Z,987.62
2018-03-11T09:59:20.704Z,987.59
2018-03-11T10:00:30.011Z,987.62
2018-03-11T10:01:40.120Z,987.66
2018-03-11T10:02:50.220Z,987.65
2018-03-11T10:04:00.062Z,987.63
2018-03-11T10:05:09.927Z,987.62
2018-03-11T10:06:19.762Z,987.69
2018-03-11T10:07:29.902Z,987.61
2018-03-11T10:08:39.743Z,987.59
2018-03-11T10:09:49.328Z,987.57
2018-03-11T10:10:59.448Z,987.6
2018-03-11T10:12:09.554Z,987.57
2018-03-11T10:13:19.628Z,987.54
2018-03-11T10:14:29.795Z,987.51
2018-03-11T10:15:39.608Z,987.63
2018-03-11T10:16:49.512Z,987.58
2018-03-11T10:17:59.621Z,987.63
2018-03-11T10:19:09.428Z,987.54
2018-03-11T10:20:18.987Z,987.47
2018-03-11T10:21:28.798Z,987.38
2018-03-11T10:22:38.883Z,987.35
2018-03-11T10:23:48.693Z,987.34
2018-03-11T10:24:58.510Z,987.32
2018-03-11T10:26:08.313Z,987.42
2018-03-11T10:27:18.119Z,987.42
2018-03-11T10:28:28.282Z,987.39
2018-03-11T10:29:38.350Z,987.33
2018-03-11T10:30:48.162Z,987.28
2018-03-11T10:31:58.246Z,987.23
2018-03-11T10:33:07.790Z,987.28
2018-03-11T10:34:17.106Z,987.27
2018-03-11T10:35:26.941Z,987.31
2018-03-11T10:36:36.779Z,987.35
2018-03-11T10:37:46.375Z,987.31
2018-03-11T10:38:56.266Z,987.31
2018-03-11T10:40:06.136Z,987.3
2018-03-11T10:41:15.951Z,987.33
2018-03-11T10:42:25.788Z,987.24
2018-03-11T10:43:35.334Z,987.18
2018-03-11T10:44:44.610Z,987.21
2018-03-11T10:45:54.486Z,987.13
2018-03-11T10:47:04.296Z,987.18
2018-03-11T10:48:14.383Z,987.18
2018-03-11T10:49:24.196Z,987.21
2018-03-11T10:50:34.011Z,987.19
2018-03-11T10:51:44.277Z,987.12
2018-03-11T10:52:54.371Z,987.18
2018-03-11T10:54:04.432Z,987.14
2018-03-11T10:55:14.494Z,987.08
2018-03-11T10:56:24.370Z,987.09
2018-03-11T10:57:33.716Z,987.12
2018-03-11T10:58:43.573Z,987.07
2018-03-11T10:59:53.449Z,987.05
2018-03-11T11:01:03.537Z,986.94
2018-03-11T11:02:13.617Z,986.91
2018-03-11T11:03:23.354Z,986.91
2018-03-11T11:04:32.917Z,986.88
2018-03-11T11:05:42.719Z,986.77
2018-03-11T11:06:52.801Z,986.81
2018-03-11T11:08:02.889Z,986.79
2018-03-11T11:09:12.719Z,986.7
2018-03-11T11:10:22.261Z,986.64
2018-03-11T11:11:32.087Z,986.67
2018-03-11T11:12:41.628Z,986.56
2018-03-11T11:13:51.448Z,986.59
2018-03-11T11:15:01.318Z,986.51
2018-03-11T11:16:11.424Z,986.42
2018-03-11T11:17:21.515Z,986.38
2018-03-11T11:18:31.643Z,986.32
2018-03-11T11:19:41.763Z,986.38
2018-03-11T11:20:51.853Z,986.3
2018-03-11T11:22:01.687Z,986.23
2018-03-11T11:23:11.502Z,986.18
2018-03-11T11:24:21.606Z,986.14
2018-03-11T11:25:31.715Z,986.2
2018-03-11T11:26:41.679Z,986.17
2018-03-11T11:27:51.745Z,986.16
2018-03-11T11:29:01.824Z,986.13
2018-03-11T11:30:11.670Z,986.08
2018-03-11T11:31:21.478Z,986
2018-03-11T11:32:31.036Z,985.97
2018-03-11T11:33:41.125Z,985.9
2018-03-11T11:34:51.194Z,985.85
2018-03-11T11:36:01.007Z,985.82
2018-03-11T11:37:11.083Z,985.76
2018-03-11T11:38:21.256Z,985.7
2018-03-11T11:39:30.823Z,985.63
2018-03-11T11:40:40.912Z,985.58
2018-03-11T11:41:50.997Z,985.64
2018-03-11T11:43:01.063Z,985.65
2018-03-11T11:44:11.237Z,985.64
2018-03-11T11:45:21.345Z,985.69
2018-03-11T11:46:31.159Z,985.64
2018-03-11T11:47:41.236Z,985.65
2018-03-11T11:48:50.868Z,985.7
2018-03-11T11:50:01.056Z,985.62
2018-03-11T11:51:11.130Z,985.65
2018-03-11T11:52:20.703Z,985.67
2018-03-11T11:53:30.823Z,985.64
2018-03-11T11:54:40.362Z,985.62
2018-03-11T11:55:49.901Z,985.61
2018-03-11T11:56:59.985Z,985.66
2018-03-11T11:58:09.830Z,985.61
2018-03-11T11:59:19.685Z,985.63
2018-03-11T12:00:29.772Z,985.56
2018-03-11T12:01:39.845Z,985.6
2018-03-11T12:02:49.928Z,985.46
2018-03-11T12:03:59.989Z,985.44
2018-03-11T12:05:10.053Z,985.44
2018-03-11T12:06:20.208Z,985.41
2018-03-11T12:07:30.322Z,985.37
2018-03-11T12:08:40.402Z,985.32
2018-03-11T12:09:50.473Z,985.31
2018-03-11T12:11:00.581Z,985.29
2018-03-11T12:12:10.665Z,985.23
2018-03-11T12:13:20.869Z,985.21
2018-03-11T12:14:30.412Z,985.17
2018-03-11T12:15:40.493Z,985.16
2018-03-11T12:16:50.304Z,985.12
2018-03-11T12:18:00.108Z,985.16
2018-03-11T12:19:09.923Z,985.19
2018-03-11T12:20:19.482Z,985.14
2018-03-11T12:21:29.294Z,985.05
2018-03-11T12:22:39.416Z,985.09
2018-03-11T12:23:49.505Z,985.11
2018-03-11T12:24:59.357Z,985.17
2018-03-11T12:26:09.196Z,985.14
2018-03-11T12:27:19.287Z,985.08
2018-03-11T12:28:28.846Z,985.05
2018-03-11T12:29:38.411Z,984.92
2018-03-11T12:30:48.540Z,984.92
2018-03-11T12:31:58.381Z,984.88
2018-03-11T12:33:08.460Z,984.95
2018-03-11T12:34:18.558Z,984.98
2018-03-11T12:35:29.029Z,985.02
2018-03-11T12:36:39.155Z,984.96
2018-03-11T12:37:49.236Z,985.03
2018-03-11T12:38:58.827Z,985.09
2018-03-11T12:40:08.961Z,985.01
2018-03-11T12:41:19.076Z,984.98
2018-03-11T12:42:28.925Z,984.99
2018-03-11T12:43:39.032Z,984.99
2018-03-11T12:44:49.128Z,984.94
2018-03-11T12:45:59.272Z,985
2018-03-11T12:47:09.429Z,984.91
2018-03-11T12:48:19.565Z,984.91
2018-03-11T12:49:29.655Z,984.91
2018-03-11T12:50:39.754Z,984.91
2018-03-11T12:51:49.815Z,984.91
2018-03-11T12:52:59.369Z,984.78
2018-03-11T12:54:09.475Z,984.74
2018-03-11T12:55:19.284Z,984.7
2018-03-11T12:56:29.105Z,984.65
2018-03-11T12:57:39.175Z,984.68
2018-03-11T12:58:49.240Z,984.64
2018-03-11T12:59:59.076Z,984.56
2018-03-11T13:01:09.189Z,984.46
2018-03-11T13:02:19.272Z,984.47
2018-03-11T13:03:28.857Z,984.49
2018-03-11T13:04:38.982Z,984.42
2018-03-11T13:05:48.295Z,984.36
2018-03-11T13:06:58.387Z,984.32
2018-03-11T13:08:08.482Z,984.43
2018-03-11T13:09:18.592Z,984.38
2018-03-11T13:10:28.479Z,984.28
2018-03-11T13:11:38.353Z,984.25
2018-03-11T13:12:48.173Z,984.2
2018-03-11T13:13:58.265Z,984.11
2018-03-11T13:15:08.098Z,984.11
2018-03-11T13:16:18.261Z,984.06
2018-03-11T13:17:27.592Z,984.03
2018-03-11T13:18:37.411Z,984.06
2018-03-11T13:19:47.240Z,983.93
2018-03-11T13:20:56.791Z,983.91
2018-03-11T13:22:06.094Z,983.84
2018-03-11T13:23:16.216Z,983.8
2018-03-11T13:24:26.033Z,983.81
2018-03-11T13:25:36.134Z,983.81
2018-03-11T13:26:46.485Z,983.75
2018-03-11T13:27:56.585Z,983.68
2018-03-11T13:29:06.686Z,983.69
2018-03-11T13:30:16.773Z,983.71
2018-03-11T13:31:26.850Z,983.65
2018-03-11T13:32:36.395Z,983.63
2018-03-11T13:33:46.240Z,983.6
2018-03-11T13:34:56.383Z,983.55
2018-03-11T13:36:06.454Z,983.53
2018-03-11T13:37:16.035Z,983.54
2018-03-11T13:38:26.003Z,983.54
2018-03-11T13:39:36.158Z,983.53
2018-03-11T13:40:46.254Z,983.48
2018-03-11T13:41:56.334Z,983.56
2018-03-11T13:43:05.913Z,983.52
2018-03-11T13:44:16.100Z,983.51
2018-03-11T13:45:25.983Z,983.48
2018-03-11T13:46:35.835Z,983.51
2018-03-11T13:47:45.896Z,983.5
2018-03-11T13:48:56.041Z,983.47
2018-03-11T13:50:06.122Z,983.47
2018-03-11T13:51:16.204Z,983.45
2018-03-11T13:52:26.332Z,983.49
2018-03-11T13:53:36.405Z,983.49
2018-03-11T13:54:46.313Z,983.43
2018-03-11T13:55:56.158Z,983.38
2018-03-11T13:57:06.315Z,983.37
2018-03-11T13:58:16.188Z,983.4
2018-03-11T13:59:26.015Z,983.36
2018-03-11T14:00:35.935Z,983.34
2018-03-11T14:01:46.056Z,983.31
2018-03-11T14:02:56.161Z,983.34
2018-03-11T14:04:06.043Z,983.25
2018-03-11T14:05:16.123Z,983.23
2018-03-11T14:06:25.437Z,983.25
2018-03-11T14:07:35.310Z,983.23
2018-03-11T14:08:45.392Z,983.12
2018-03-11T14:09:55.260Z,983.17
2018-03-11T14:11:05.369Z,983.16
2018-03-11T14:12:15.449Z,983.14
2018-03-11T14:13:25.384Z,983.13
2018-03-11T14:14:34.954Z,983.1
2018-03-11T14:15:45.056Z,983.05
2018-03-11T14:16:55.172Z,983.04
2018-03-11T14:18:05.241Z,983.03
2018-03-11T14:19:14.798Z,982.97
2018-03-11T14:20:24.615Z,983
2018-03-11T14:21:34.454Z,982.92
2018-03-11T14:22:44.026Z,982.88
2018-03-11T14:23:54.116Z,982.9
2018-03-11T14:25:03.997Z,982.83
2018-03-11T14:26:14.079Z,982.82
2018-03-11T14:27:24.168Z,982.79
2018-03-11T14:28:34.284Z,982.8
2018-03-11T14:29:44.108Z,982.76
2018-03-11T14:30:54.196Z,982.72
2018-03-11T14:32:04.294Z,982.77
2018-03-11T14:33:14.151Z,982.73
2018-03-11T14:34:24.231Z,982.72
2018-03-11T14:35:34.054Z,982.73
2018-03-11T14:36:44.151Z,982.7
2018-03-11T14:37:54.258Z,982.68
2018-03-11T14:39:04.405Z,982.65
2018-03-11T14:40:14.225Z,982.66
2018-03-11T14:41:24.311Z,982.66
2018-03-11T14:42:34.448Z,982.69
2018-03-11T14:43:44.280Z,982.63
2018-03-11T14:44:54.395Z,982.61
2018-03-11T14:46:04.480Z,982.59
2018-03-11T14:47:14.317Z,982.5
2018-03-11T14:48:24.377Z,982.5
2018-03-11T14:49:34.450Z,982.43
2018-03-11T14:50:44.598Z,982.41
2018-03-11T14:51:54.386Z,982.38
2018-03-11T14:53:04.466Z,982.36
2018-03-11T14:54:14.569Z,982.31
2018-03-11T14:55:24.644Z,982.29
2018-03-11T14:56:34.750Z,982.27
2018-03-11T14:57:44.550Z,982.29
2018-03-11T14:58:54.397Z,982.28
2018-03-11T15:00:04.490Z,982.31
2018-03-11T15:01:14.575Z,982.27
2018-03-11T15:02:24.663Z,982.22
2018-03-11T15:03:34.532Z,982.21
2018-03-11T15:04:44.368Z,982.19